Terminal Aerodrome Forecast
Issued by NWS Louisville, KY

Home | Current Version | Previous Version | Text Only | Print | Product List | Glossary On
Versions: 1 2 3 4 5 6 7 8 9 10 11 12
000
FTUS43 KLMK 252300
TAFBWG
TAF
KBWG 252325Z 2600/2624 02003KT P6SM BKN120
     FM260300 01003KT P6SM VCSH FEW035 BKN080
     FM260600 33003KT P6SM SCT035 SCT150
     FM261300 35005KT P6SM VCSH BKN025=

USA.gov is the U.S. government's official web portal to all federal, state and local government web resources and services.